createdAt,value
2023-05-03T00:00:44.466Z,69.95
2023-05-03T00:03:13.565Z,70.31
2023-05-03T00:05:42.034Z,69.82
2023-05-03T00:08:12.048Z,70.21
2023-05-03T00:10:40.635Z,71.26
2023-05-03T00:13:11.322Z,71.09
2023-05-03T00:15:41.834Z,71.44
2023-05-03T00:18:10.754Z,71.59
2023-05-03T00:20:40.807Z,71.73
2023-05-03T00:23:09.137Z,70.84
2023-05-03T00:25:37.066Z,70.76
2023-05-03T00:28:06.234Z,70.81
2023-05-03T00:30:36.825Z,70.55
2023-05-03T00:33:05.571Z,71.49
2023-05-03T00:35:33.746Z,70.54
2023-05-03T00:38:03.922Z,70.80
2023-05-03T00:40:32.558Z,71.37
2023-05-03T00:43:03.139Z,71.67
2023-05-03T00:45:32.482Z,70.85
2023-05-03T00:48:09.099Z,70.91
2023-05-03T00:50:38.552Z,71.48
2023-05-03T00:53:07.751Z,72.03
2023-05-03T00:55:37.387Z,71.57
2023-05-03T00:58:09.852Z,72.00
2023-05-03T01:00:37.751Z,72.02
2023-05-03T01:03:09.889Z,71.63
2023-05-03T01:05:47.876Z,72.72
2023-05-03T01:08:24.340Z,72.57
2023-05-03T01:10:56.957Z,71.99
2023-05-03T01:13:32.648Z,73.09
2023-05-03T01:16:06.878Z,71.87
2023-05-03T01:18:44.140Z,73.07
2023-05-03T01:21:15.725Z,72.79
2023-05-03T01:23:50.202Z,72.47
2023-05-03T01:26:24.057Z,72.61
2023-05-03T01:28:53.230Z,73.54
2023-05-03T01:31:27.713Z,72.87
2023-05-03T01:34:06.469Z,73.72
2023-05-03T01:36:38.433Z,73.81
2023-05-03T01:39:12.386Z,74.13
2023-05-03T01:41:45.330Z,73.11
2023-05-03T01:44:18.449Z,73.81
2023-05-03T01:46:50.888Z,72.65
2023-05-03T01:49:19.269Z,73.05
2023-05-03T01:51:48.296Z,73.09
2023-05-03T01:54:22.081Z,73.69
2023-05-03T01:56:51.728Z,73.51
2023-05-03T01:59:19.817Z,73.87
2023-05-03T02:01:48.249Z,73.14
2023-05-03T02:04:16.231Z,73.35
2023-05-03T02:06:44.032Z,72.73
2023-05-03T02:09:14.862Z,73.45
2023-05-03T02:11:44.614Z,73.29
2023-05-03T02:14:13.918Z,74.27
2023-05-03T02:16:42.037Z,73.28
2023-05-03T02:19:11.325Z,73.28
2023-05-03T02:21:40.479Z,73.51
2023-05-03T02:24:12.366Z,72.92
2023-05-03T02:26:40.958Z,74.47
2023-05-03T02:29:10.055Z,73.43
2023-05-03T02:31:39.597Z,74.26
2023-05-03T02:34:12.969Z,74.20
2023-05-03T02:36:46.600Z,74.08
2023-05-03T02:39:17.711Z,74.11
2023-05-03T02:41:45.961Z,74.53
2023-05-03T02:44:14.550Z,73.95
2023-05-03T02:46:46.525Z,74.27
2023-05-03T02:49:14.810Z,74.35
2023-05-03T02:51:42.760Z,74.53
2023-05-03T02:54:11.397Z,73.65
2023-05-03T02:56:39.790Z,73.81
2023-05-03T02:59:08.306Z,73.91
2023-05-03T03:01:36.118Z,74.04
2023-05-03T03:04:09.427Z,73.22
2023-05-03T03:06:38.282Z,73.76
2023-05-03T03:09:06.437Z,73.98
2023-05-03T03:11:36.242Z,73.05
2023-05-03T03:14:04.519Z,73.29
2023-05-03T03:16:33.322Z,73.42
2023-05-03T03:19:01.506Z,73.07
2023-05-03T03:21:32.698Z,72.43
2023-05-03T03:24:01.489Z,72.57
2023-05-03T03:26:30.299Z,72.82
2023-05-03T03:29:01.388Z,73.72
2023-05-03T03:31:35.655Z,73.18
2023-05-03T03:34:03.772Z,73.37
2023-05-03T03:36:33.805Z,73.59
2023-05-03T03:39:01.843Z,73.91
2023-05-03T03:41:29.912Z,73.83
2023-05-03T03:43:59.133Z,74.20
2023-05-03T03:46:27.353Z,73.60
2023-05-03T03:49:04.644Z,73.15
2023-05-03T03:51:34.954Z,72.92
2023-05-03T03:54:03.227Z,73.42
2023-05-03T03:56:34.778Z,73.80
2023-05-03T03:59:04.089Z,72.91
2023-05-03T04:01:33.820Z,73.40
2023-05-03T04:04:04.068Z,73.74
2023-05-03T04:06:38.607Z,72.96
2023-05-03T04:09:13.555Z,73.46
2023-05-03T04:11:46.382Z,72.72
2023-05-03T04:14:14.321Z,73.51
2023-05-03T04:16:49.172Z,72.70
2023-05-03T04:19:19.338Z,72.96
2023-05-03T04:21:49.607Z,74.15
2023-05-03T04:24:19.074Z,73.31
2023-05-03T04:26:51.511Z,73.83
2023-05-03T04:29:23.690Z,73.08
2023-05-03T04:31:52.082Z,72.61
2023-05-03T04:34:22.178Z,72.56
2023-05-03T04:36:51.726Z,72.36
2023-05-03T04:39:20.735Z,72.84
2023-05-03T04:41:50.290Z,71.86
2023-05-03T04:44:18.816Z,72.94
2023-05-03T04:46:51.352Z,72.29
2023-05-03T04:49:24.850Z,72.17
2023-05-03T04:51:55.216Z,72.58
2023-05-03T04:54:26.392Z,72.03
2023-05-03T04:56:56.956Z,72.33
2023-05-03T04:59:26.308Z,71.32
2023-05-03T05:01:54.607Z,70.48
2023-05-03T05:04:29.271Z,70.60
2023-05-03T05:06:59.526Z,71.66
2023-05-03T05:09:32.142Z,70.65
2023-05-03T05:12:05.274Z,70.19
2023-05-03T05:14:33.817Z,70.51
2023-05-03T05:17:04.257Z,70.31
2023-05-03T05:19:34.159Z,69.35
2023-05-03T05:22:05.129Z,69.51
2023-05-03T05:24:38.388Z,68.92
2023-05-03T05:27:07.556Z,68.71
2023-05-03T05:29:36.991Z,68.80
2023-05-03T05:32:06.895Z,68.14
2023-05-03T05:34:45.531Z,67.92
2023-05-03T05:37:18.891Z,67.50
2023-05-03T05:39:47.598Z,68.36
2023-05-03T05:42:16.980Z,67.32
2023-05-03T05:44:46.464Z,66.89
2023-05-03T05:47:14.772Z,66.04
2023-05-03T05:49:45.864Z,67.42
2023-05-03T05:52:16.028Z,66.90
2023-05-03T05:54:46.295Z,65.55
2023-05-03T05:57:19.361Z,65.81
2023-05-03T05:59:50.014Z,65.82
2023-05-03T06:02:21.067Z,65.53
2023-05-03T06:04:51.745Z,64.63
2023-05-03T06:07:21.600Z,64.12
2023-05-03T06:09:49.438Z,64.25
2023-05-03T06:12:17.677Z,63.61
2023-05-03T06:15:02.393Z,64.01
2023-05-03T06:17:31.492Z,63.97
2023-05-03T06:20:05.332Z,62.97
2023-05-03T06:22:35.253Z,63.02
2023-05-03T06:25:07.432Z,63.30
2023-05-03T06:27:35.583Z,63.00
2023-05-03T06:30:04.621Z,63.33
2023-05-03T06:32:33.054Z,63.01
2023-05-03T06:35:03.337Z,62.02
2023-05-03T06:37:31.716Z,62.32
2023-05-03T06:40:05.714Z,62.09
2023-05-03T06:42:34.477Z,62.08
2023-05-03T06:45:03.801Z,62.22
2023-05-03T06:47:34.014Z,61.95
2023-05-03T06:50:02.567Z,60.43
2023-05-03T06:52:31.727Z,61.25
2023-05-03T06:55:02.678Z,61.73
2023-05-03T06:57:30.814Z,60.94
2023-05-03T06:59:59.780Z,60.69
2023-05-03T07:02:32.826Z,60.52
2023-05-03T07:05:02.442Z,59.69
2023-05-03T07:07:34.922Z,60.30
2023-05-03T07:10:05.773Z,60.69
2023-05-03T07:12:38.437Z,61.07
2023-05-03T07:15:07.552Z,60.60
2023-05-03T07:17:36.724Z,60.38
2023-05-03T07:20:07.484Z,59.40
2023-05-03T07:22:35.833Z,60.13
2023-05-03T07:25:08.393Z,59.71
2023-05-03T07:27:38.375Z,59.55
2023-05-03T07:30:08.386Z,59.77
2023-05-03T07:32:36.739Z,58.74
2023-05-03T07:35:04.966Z,59.09
2023-05-03T07:37:33.400Z,59.19
2023-05-03T07:40:01.890Z,58.96
2023-05-03T07:42:31.824Z,59.06
2023-05-03T07:45:01.224Z,58.94
2023-05-03T07:47:38.110Z,58.06
2023-05-03T07:50:08.335Z,58.04
2023-05-03T07:52:44.903Z,58.58
2023-05-03T07:55:12.837Z,58.47
2023-05-03T07:57:51.678Z,57.28
2023-05-03T08:00:26.178Z,58.94
2023-05-03T08:02:55.138Z,57.96
2023-05-03T08:05:24.856Z,57.74
2023-05-03T08:07:54.492Z,56.49
2023-05-03T08:10:25.123Z,56.39
2023-05-03T08:12:55.414Z,56.55
2023-05-03T08:15:23.582Z,56.86
2023-05-03T08:17:53.964Z,56.06
2023-05-03T08:20:22.614Z,55.39
2023-05-03T08:22:54.404Z,56.51
2023-05-03T08:25:23.545Z,55.41
2023-05-03T08:27:51.716Z,55.33
2023-05-03T08:30:23.573Z,54.59
2023-05-03T08:32:51.812Z,55.93
2023-05-03T08:35:20.370Z,54.55
2023-05-03T08:37:49.915Z,55.54
2023-05-03T08:40:18.386Z,55.32
2023-05-03T08:42:50.154Z,53.69
2023-05-03T08:45:18.524Z,54.25
2023-05-03T08:47:54.835Z,53.81
2023-05-03T08:50:24.669Z,53.53
2023-05-03T08:52:52.790Z,53.88
2023-05-03T08:55:21.827Z,53.91
2023-05-03T08:57:49.776Z,53.32
2023-05-03T09:00:19.943Z,52.30
2023-05-03T09:02:51.825Z,51.96
2023-05-03T09:05:34.703Z,52.60
2023-05-03T09:08:07.136Z,51.62
2023-05-03T09:10:44.224Z,52.28
2023-05-03T09:13:14.820Z,52.27
2023-05-03T09:15:47.318Z,51.53
2023-05-03T09:18:19.302Z,50.75
2023-05-03T09:20:53.177Z,50.89
2023-05-03T09:23:31.772Z,50.80
2023-05-03T09:26:01.145Z,50.84
2023-05-03T09:28:29.640Z,51.82
2023-05-03T09:31:10.841Z,50.54
2023-05-03T09:33:45.922Z,50.28
2023-05-03T09:36:14.604Z,49.32
2023-05-03T09:38:44.917Z,49.28
2023-05-03T09:41:13.872Z,49.23
2023-05-03T09:43:51.512Z,49.08
2023-05-03T09:46:21.224Z,48.85
2023-05-03T09:48:56.334Z,48.88
2023-05-03T09:51:26.285Z,48.82
2023-05-03T09:53:55.769Z,48.42
2023-05-03T09:56:26.808Z,48.42
2023-05-03T09:58:56.787Z,48.20
2023-05-03T10:01:27.043Z,47.77
2023-05-03T10:03:59.469Z,47.14
2023-05-03T10:06:34.103Z,47.16
2023-05-03T10:09:08.918Z,48.08
2023-05-03T10:11:38.779Z,48.35
2023-05-03T10:14:08.407Z,47.64
2023-05-03T10:16:42.362Z,47.45
2023-05-03T10:19:18.114Z,47.38
2023-05-03T10:21:58.132Z,46.80
2023-05-03T10:24:27.593Z,47.29
2023-05-03T10:26:59.347Z,46.62
2023-05-03T10:29:50.029Z,46.87
2023-05-03T10:32:39.777Z,46.12
2023-05-03T10:35:16.710Z,47.11
2023-05-03T10:37:47.226Z,45.72
2023-05-03T10:40:17.643Z,46.42
2023-05-03T10:42:53.332Z,45.97
2023-05-03T10:45:26.687Z,46.21
2023-05-03T10:48:20.542Z,46.43
2023-05-03T10:50:51.671Z,46.31
2023-05-03T10:53:45.002Z,45.51
2023-05-03T10:56:15.891Z,44.75
2023-05-03T10:58:49.491Z,44.07
2023-05-03T11:01:21.074Z,44.90
2023-05-03T11:03:53.792Z,44.45
2023-05-03T11:06:34.596Z,44.59
2023-05-03T11:09:04.449Z,44.43
2023-05-03T11:11:33.256Z,44.04
2023-05-03T11:14:09.280Z,44.32
2023-05-03T11:16:41.912Z,44.24
2023-05-03T11:20:04.243Z,43.79
2023-05-03T11:22:33.792Z,43.34
2023-05-03T11:25:02.796Z,42.97
2023-05-03T11:27:32.441Z,43.71
2023-05-03T11:30:03.646Z,43.38
2023-05-03T11:32:34.613Z,43.97
2023-05-03T11:35:07.552Z,44.33
2023-05-03T11:37:38.930Z,42.58
2023-05-03T11:40:16.236Z,41.62
2023-05-03T11:42:59.979Z,42.76
2023-05-03T11:45:33.322Z,42.60
2023-05-03T11:48:02.133Z,42.52
2023-05-03T11:50:46.383Z,43.34
2023-05-03T11:53:17.544Z,43.44
2023-05-03T11:55:48.175Z,42.47
2023-05-03T11:58:18.721Z,41.94
2023-05-03T12:00:49.550Z,42.17
2023-05-03T12:03:19.874Z,42.09
2023-05-03T12:05:49.756Z,41.92
2023-05-03T12:08:22.153Z,41.24
2023-05-03T12:10:55.257Z,40.22
2023-05-03T12:13:34.063Z,41.05
2023-05-03T12:18:56.219Z,40.78
2023-05-03T12:21:51.828Z,40.77
2023-05-03T12:24:32.187Z,41.19
2023-05-03T12:27:02.856Z,39.54
2023-05-03T12:29:35.338Z,39.34
2023-05-03T12:32:05.050Z,39.91
2023-05-03T12:34:36.730Z,39.44
2023-05-03T12:37:06.516Z,39.31
2023-05-03T12:39:39.637Z,38.89
2023-05-03T12:42:09.805Z,38.14
2023-05-03T12:44:43.511Z,38.58
2023-05-03T12:47:16.135Z,38.77
2023-05-03T12:49:52.390Z,39.23
2023-05-03T12:52:37.219Z,38.78
2023-05-03T12:55:11.326Z,38.87
2023-05-03T12:57:44.037Z,39.47
2023-05-03T13:05:35.020Z,38.54
2023-05-03T13:08:09.618Z,38.29
2023-05-03T13:10:42.152Z,38.45
2023-05-03T13:13:11.280Z,38.44
2023-05-03T13:15:41.501Z,39.69
2023-05-03T13:18:10.013Z,38.33
2023-05-03T13:20:39.588Z,37.00
2023-05-03T13:23:12.370Z,37.25
2023-05-03T13:25:42.159Z,37.33
2023-05-03T13:28:11.534Z,36.88
2023-05-03T13:30:40.704Z,36.81
2023-05-03T13:33:09.588Z,37.35
2023-05-03T13:35:39.227Z,36.42
2023-05-03T13:38:09.096Z,36.73
2023-05-03T13:40:38.930Z,36.75
2023-05-03T13:43:11.152Z,36.39
2023-05-03T13:45:48.037Z,35.75
2023-05-03T13:48:19.472Z,34.66
2023-05-03T13:50:49.804Z,32.18
2023-05-03T13:53:17.958Z,30.90
2023-05-03T13:55:45.855Z,29.61
2023-05-03T13:58:15.485Z,29.98
2023-05-03T14:00:48.186Z,27.84
2023-05-03T14:03:19.992Z,26.94
2023-05-03T14:05:52.644Z,28.72
2023-05-03T14:08:21.497Z,25.00
2023-05-03T14:10:52.781Z,25.29
2023-05-03T14:13:23.049Z,25.98
2023-05-03T14:15:51.659Z,24.05
2023-05-03T14:18:19.874Z,25.21
2023-05-03T14:20:50.472Z,23.72
2023-05-03T14:23:21.075Z,24.04
2023-05-03T14:25:49.510Z,24.84
2023-05-03T14:28:20.023Z,23.78
2023-05-03T14:30:50.219Z,22.86
2023-05-03T14:33:18.874Z,22.94
2023-05-03T14:35:48.212Z,22.29
2023-05-03T14:38:19.024Z,24.21
2023-05-03T14:40:47.765Z,24.53
2023-05-03T14:43:16.485Z,24.23
2023-05-03T14:45:48.228Z,24.32
2023-05-03T14:48:20.076Z,22.58
2023-05-03T14:50:52.181Z,23.55
2023-05-03T14:53:20.541Z,22.90
2023-05-03T14:55:50.140Z,23.42
2023-05-03T14:58:23.660Z,24.12
2023-05-03T15:00:52.207Z,20.99
2023-05-03T15:03:24.904Z,23.09
2023-05-03T15:05:54.699Z,22.50
2023-05-03T15:08:24.916Z,23.43
2023-05-03T15:10:52.987Z,25.18
2023-05-03T15:13:22.577Z,25.64
2023-05-03T15:15:53.254Z,26.56
2023-05-03T15:18:23.282Z,23.31
2023-05-03T15:20:51.759Z,22.56
2023-05-03T15:23:27.415Z,22.98
2023-05-03T15:25:57.079Z,23.08
2023-05-03T15:28:38.261Z,22.20
2023-05-03T15:31:07.914Z,21.95
2023-05-03T15:33:43.600Z,21.72
2023-05-03T15:36:19.845Z,22.45
2023-05-03T15:38:53.289Z,23.70
2023-05-03T15:41:25.690Z,23.11
2023-05-03T15:43:57.172Z,23.49
2023-05-03T15:46:26.058Z,25.29
2023-05-03T15:49:01.145Z,28.77
2023-05-03T15:51:33.996Z,29.61
2023-05-03T15:54:07.760Z,32.17
2023-05-03T15:56:45.249Z,33.13
2023-05-03T15:59:16.047Z,33.05
2023-05-03T16:01:46.930Z,34.50
2023-05-03T16:04:34.664Z,34.04
2023-05-03T16:07:04.565Z,33.76
2023-05-03T16:09:39.437Z,34.17
2023-05-03T16:12:12.420Z,34.13
2023-05-03T16:14:43.608Z,34.05
2023-05-03T16:17:11.709Z,34.71
2023-05-03T16:19:43.958Z,35.04
2023-05-03T16:22:29.671Z,35.15
2023-05-03T16:25:02.476Z,35.18
2023-05-03T16:27:31.393Z,35.56
2023-05-03T16:30:12.160Z,35.32
2023-05-03T16:32:42.543Z,35.75
2023-05-03T16:35:39.137Z,35.30
2023-05-03T16:38:13.386Z,35.66
2023-05-03T16:40:45.907Z,35.89
2023-05-03T16:43:20.504Z,35.67
2023-05-03T16:45:57.132Z,35.47
2023-05-03T16:48:31.602Z,35.56
2023-05-03T16:51:02.385Z,35.63
2023-05-03T16:53:33.380Z,36.25
2023-05-03T16:56:05.217Z,35.85
2023-05-03T16:58:34.284Z,35.49
2023-05-03T17:01:03.812Z,36.22
2023-05-03T17:03:33.716Z,35.86
2023-05-03T17:06:05.904Z,35.81
2023-05-03T17:08:36.915Z,36.36
2023-05-03T17:11:08.897Z,35.78
2023-05-03T17:13:42.891Z,35.89
2023-05-03T17:16:15.587Z,36.16
2023-05-03T17:18:50.613Z,36.30
2023-05-03T17:21:20.781Z,36.63
2023-05-03T17:23:52.145Z,36.79
2023-05-03T17:26:22.993Z,36.83
2023-05-03T17:28:54.225Z,36.35
2023-05-03T17:31:22.747Z,36.73
2023-05-03T17:33:52.990Z,37.04
2023-05-03T17:36:24.154Z,36.75
2023-05-03T17:38:54.154Z,37.13
2023-05-03T17:41:22.473Z,37.61
2023-05-03T17:43:56.566Z,37.28
2023-05-03T17:46:24.888Z,37.41
2023-05-03T17:48:55.362Z,37.70
2023-05-03T17:51:24.851Z,36.95
2023-05-03T17:53:56.167Z,36.00
2023-05-03T17:56:27.836Z,35.74
2023-05-03T17:58:57.343Z,35.18
2023-05-03T18:01:29.407Z,35.37
2023-05-03T18:03:58.898Z,36.25
2023-05-03T18:06:29.633Z,36.66
2023-05-03T18:09:00.565Z,37.50
2023-05-03T18:11:29.609Z,37.88
2023-05-03T18:13:58.571Z,38.38
2023-05-03T18:16:28.778Z,39.00
2023-05-03T18:18:56.983Z,39.63
2023-05-03T18:21:27.927Z,39.78
2023-05-03T18:24:01.164Z,39.76
2023-05-03T18:26:32.416Z,39.48
2023-05-03T18:29:01.858Z,40.22
2023-05-03T18:31:30.481Z,40.60
2023-05-03T18:34:02.776Z,41.36
2023-05-03T18:36:31.421Z,41.02
2023-05-03T18:39:18.175Z,41.43
2023-05-03T18:41:46.134Z,41.72
2023-05-03T18:44:18.308Z,42.59
2023-05-03T18:46:51.105Z,43.26
2023-05-03T18:49:22.347Z,43.53
2023-05-03T18:51:53.460Z,44.30
2023-05-03T18:54:23.329Z,44.57
2023-05-03T18:56:53.737Z,44.60
2023-05-03T18:59:22.176Z,44.65
2023-05-03T19:01:56.512Z,45.37
2023-05-03T19:04:26.046Z,45.41
2023-05-03T19:06:54.685Z,46.26
2023-05-03T19:09:25.840Z,46.33
2023-05-03T19:11:56.213Z,47.41
2023-05-03T19:14:25.662Z,47.86
2023-05-03T19:16:53.617Z,48.20
2023-05-03T19:19:21.651Z,48.32
2023-05-03T19:21:49.535Z,48.82
2023-05-03T19:24:20.821Z,49.83
2023-05-03T19:26:50.476Z,49.38
2023-05-03T19:29:20.109Z,49.84
2023-05-03T19:31:51.969Z,50.16
2023-05-03T19:34:21.248Z,50.14
2023-05-03T19:36:50.910Z,50.32
2023-05-03T19:39:19.927Z,50.40
2023-05-03T19:41:48.895Z,50.53
2023-05-03T19:44:20.260Z,52.00
2023-05-03T19:46:52.564Z,52.83
2023-05-03T19:49:21.101Z,52.75
2023-05-03T19:51:53.650Z,54.69
2023-05-03T19:54:22.192Z,53.67
2023-05-03T19:56:52.528Z,54.27
2023-05-03T19:59:22.823Z,53.77
2023-05-03T20:01:51.153Z,54.76
2023-05-03T20:04:20.583Z,56.05
2023-05-03T20:06:48.517Z,56.72
2023-05-03T20:09:17.591Z,56.50
2023-05-03T20:11:48.738Z,57.04
2023-05-03T20:14:17.542Z,57.48
2023-05-03T20:16:47.542Z,56.16
2023-05-03T20:19:18.197Z,58.03
2023-05-03T20:21:46.141Z,58.08
2023-05-03T20:24:18.325Z,56.98
2023-05-03T20:26:46.599Z,56.95
2023-05-03T20:29:14.964Z,57.28
2023-05-03T20:31:46.555Z,57.59
2023-05-03T20:34:19.758Z,57.58
2023-05-03T20:36:48.132Z,58.12
2023-05-03T20:39:16.306Z,57.17
2023-05-03T20:41:44.438Z,59.01
2023-05-03T20:44:14.397Z,58.13
2023-05-03T20:46:42.293Z,58.25
2023-05-03T20:49:10.592Z,57.27
2023-05-03T20:51:40.240Z,56.49
2023-05-03T20:54:12.283Z,58.03
2023-05-03T20:56:40.654Z,58.40
2023-05-03T20:59:12.672Z,59.48
2023-05-03T21:01:41.431Z,58.68
2023-05-03T21:04:10.011Z,59.23
2023-05-03T21:06:44.894Z,59.19
2023-05-03T21:09:14.508Z,60.47
2023-05-03T21:11:43.853Z,59.84
2023-05-03T21:14:13.936Z,59.72
2023-05-03T21:16:42.899Z,60.22
2023-05-03T21:19:11.631Z,61.14
2023-05-03T21:21:42.565Z,60.11
2023-05-03T21:24:11.483Z,59.06
2023-05-03T21:26:40.395Z,59.29
2023-05-03T21:29:08.348Z,60.14
2023-05-03T21:31:39.456Z,58.80
2023-05-03T21:34:07.353Z,59.74
2023-05-03T21:36:35.411Z,59.42
2023-05-03T21:39:08.215Z,60.59
2023-05-03T21:41:37.525Z,59.54
2023-05-03T21:44:09.083Z,60.01
2023-05-03T21:46:37.128Z,60.76
2023-05-03T21:49:06.072Z,61.52
2023-05-03T21:51:36.363Z,60.75
2023-05-03T21:54:10.407Z,62.16
2023-05-03T21:56:38.195Z,62.80
2023-05-03T21:59:06.055Z,61.34
2023-05-03T22:01:34.150Z,61.42
2023-05-03T22:04:02.173Z,61.28
2023-05-03T22:06:31.025Z,61.56
2023-05-03T22:09:00.156Z,62.33
2023-05-03T22:11:29.868Z,61.67
2023-05-03T22:14:08.123Z,63.67
2023-05-03T22:16:39.853Z,64.98
2023-05-03T22:19:08.098Z,65.48
2023-05-03T22:21:36.486Z,65.66
2023-05-03T22:24:05.778Z,66.17
2023-05-03T22:26:34.972Z,66.00
2023-05-03T22:29:03.292Z,64.75
2023-05-03T22:31:31.715Z,65.79
2023-05-03T22:33:59.894Z,65.84
2023-05-03T22:36:28.342Z,65.64
2023-05-03T22:39:00.925Z,66.30
2023-05-03T22:41:29.028Z,66.79
2023-05-03T22:44:06.200Z,67.50
2023-05-03T22:46:34.577Z,69.05
2023-05-03T22:49:03.944Z,69.37
2023-05-03T22:51:32.585Z,69.14
2023-05-03T22:54:01.098Z,70.11
2023-05-03T22:56:30.506Z,70.24
2023-05-03T22:59:01.508Z,70.00
2023-05-03T23:01:30.123Z,69.69
2023-05-03T23:03:58.525Z,68.90
2023-05-03T23:06:27.678Z,68.59
2023-05-03T23:08:55.548Z,70.32
2023-05-03T23:11:25.361Z,67.74
2023-05-03T23:13:55.425Z,68.71
2023-05-03T23:16:27.019Z,69.63
2023-05-03T23:18:55.744Z,71.39
2023-05-03T23:21:23.813Z,70.53
2023-05-03T23:23:51.719Z,71.47
2023-05-03T23:26:20.379Z,71.43
2023-05-03T23:28:51.217Z,70.31
2023-05-03T23:31:20.351Z,70.49
2023-05-03T23:33:53.020Z,71.85
2023-05-03T23:36:21.342Z,71.03
2023-05-03T23:38:51.423Z,71.64
2023-05-03T23:41:19.375Z,72.31
2023-05-03T23:43:50.570Z,71.96
2023-05-03T23:46:18.792Z,71.13
2023-05-03T23:48:51.439Z,71.44
2023-05-03T23:51:20.865Z,72.12
2023-05-03T23:53:48.654Z,72.89
2023-05-03T23:56:17.217Z,73.50
2023-05-03T23:58:46.974Z,73.91
